sensor_id;sensor_type;location;lat;lon;timestamp;P1;durP1;ratioP1;P2;durP2;ratioP2
23101;SDS011;11720;51.214;22.574;2022-11-18T00:00:11;2.07;;;1.97;;
23101;SDS011;11720;51.214;22.574;2022-11-18T00:02:37;3.10;;;2.50;;
23101;SDS011;11720;51.214;22.574;2022-11-18T00:05:03;5.93;;;3.63;;
23101;SDS011;11720;51.214;22.574;2022-11-18T00:07:29;3.23;;;3.03;;
23101;SDS011;11720;51.214;22.574;2022-11-18T00:09:55;2.97;;;2.77;;
23101;SDS011;11720;51.214;22.574;2022-11-18T00:12:21;2.37;;;2.13;;
23101;SDS011;11720;51.214;22.574;2022-11-18T00:15:06;2.27;;;2.17;;
23101;SDS011;11720;51.214;22.574;2022-11-18T00:17:32;4.73;;;2.70;;
23101;SDS011;11720;51.214;22.574;2022-11-18T00:19:58;11.87;;;3.23;;
23101;SDS011;11720;51.214;22.574;2022-11-18T00:22:23;4.07;;;2.13;;
23101;SDS011;11720;51.214;22.574;2022-11-18T00:24:49;3.13;;;2.93;;
23101;SDS011;11720;51.214;22.574;2022-11-18T00:27:15;5.43;;;3.40;;
23101;SDS011;11720;51.214;22.574;2022-11-18T00:29:40;4.87;;;3.27;;
23101;SDS011;11720;51.214;22.574;2022-11-18T00:32:06;2.50;;;2.30;;
23101;SDS011;11720;51.214;22.574;2022-11-18T00:34:32;6.90;;;3.63;;
23101;SDS011;11720;51.214;22.574;2022-11-18T00:37:02;3.43;;;2.07;;
23101;SDS011;11720;51.214;22.574;2022-11-18T00:39:30;6.00;;;3.83;;
23101;SDS011;11720;51.214;22.574;2022-11-18T00:41:55;2.53;;;1.97;;
23101;SDS011;11720;51.214;22.574;2022-11-18T00:44:39;1.33;;;1.30;;
23101;SDS011;11720;51.214;22.574;2022-11-18T00:47:05;5.13;;;3.10;;
23101;SDS011;11720;51.214;22.574;2022-11-18T00:49:31;2.33;;;1.90;;
23101;SDS011;11720;51.214;22.574;2022-11-18T00:51:56;3.70;;;2.60;;
23101;SDS011;11720;51.214;22.574;2022-11-18T00:54:23;2.97;;;2.77;;
23101;SDS011;11720;51.214;22.574;2022-11-18T00:56:48;4.10;;;2.87;;
23101;SDS011;11720;51.214;22.574;2022-11-18T00:59:14;2.10;;;1.83;;
23101;SDS011;11720;51.214;22.574;2022-11-18T01:01:40;3.77;;;2.53;;
23101;SDS011;11720;51.214;22.574;2022-11-18T01:04:06;2.83;;;1.87;;
23101;SDS011;11720;51.214;22.574;2022-11-18T01:06:32;2.60;;;1.90;;
23101;SDS011;11720;51.214;22.574;2022-11-18T01:08:58;3.17;;;2.90;;
23101;SDS011;11720;51.214;22.574;2022-11-18T01:11:23;12.10;;;2.97;;
23101;SDS011;11720;51.214;22.574;2022-11-18T01:14:08;2.73;;;2.00;;
23101;SDS011;11720;51.214;22.574;2022-11-18T01:16:34;2.83;;;1.90;;
23101;SDS011;11720;51.214;22.574;2022-11-18T01:18:59;5.40;;;3.03;;
23101;SDS011;11720;51.214;22.574;2022-11-18T01:21:25;29.03;;;5.93;;
23101;SDS011;11720;51.214;22.574;2022-11-18T01:23:52;9.87;;;3.07;;
23101;SDS011;11720;51.214;22.574;2022-11-18T01:26:18;4.03;;;3.47;;
23101;SDS011;11720;51.214;22.574;2022-11-18T01:28:44;3.27;;;2.83;;
23101;SDS011;11720;51.214;22.574;2022-11-18T01:31:11;1.87;;;1.77;;
23101;SDS011;11720;51.214;22.574;2022-11-18T01:33:39;2.73;;;2.23;;
23101;SDS011;11720;51.214;22.574;2022-11-18T01:36:13;2.47;;;2.27;;
23101;SDS011;11720;51.214;22.574;2022-11-18T01:38:44;3.17;;;2.43;;
23101;SDS011;11720;51.214;22.574;2022-11-18T01:41:10;2.20;;;2.00;;
23101;SDS011;11720;51.214;22.574;2022-11-18T01:46:34;12.70;;;6.80;;
23101;SDS011;11720;51.214;22.574;2022-11-18T01:49:02;3.53;;;2.53;;
23101;SDS011;11720;51.214;22.574;2022-11-18T01:51:40;4.93;;;2.77;;
23101;SDS011;11720;51.214;22.574;2022-11-18T01:54:15;2.03;;;1.93;;
23101;SDS011;11720;51.214;22.574;2022-11-18T01:56:49;2.63;;;2.43;;
23101;SDS011;11720;51.214;22.574;2022-11-18T01:59:19;7.23;;;4.13;;
23101;SDS011;11720;51.214;22.574;2022-11-18T02:01:48;3.90;;;3.43;;
23101;SDS011;11720;51.214;22.574;2022-11-18T02:04:14;2.70;;;2.07;;
23101;SDS011;11720;51.214;22.574;2022-11-18T02:06:41;6.43;;;3.83;;
23101;SDS011;11720;51.214;22.574;2022-11-18T02:09:09;4.47;;;3.53;;
23101;SDS011;11720;51.214;22.574;2022-11-18T02:11:35;2.70;;;1.83;;
23101;SDS011;11720;51.214;22.574;2022-11-18T02:14:34;4.77;;;4.13;;
23101;SDS011;11720;51.214;22.574;2022-11-18T02:17:15;2.53;;;2.33;;
23101;SDS011;11720;51.214;22.574;2022-11-18T02:19:59;3.40;;;3.13;;
23101;SDS011;11720;51.214;22.574;2022-11-18T02:31:06;2.10;;;2.00;;
23101;SDS011;11720;51.214;22.574;2022-11-18T02:33:42;2.30;;;2.20;;
23101;SDS011;11720;51.214;22.574;2022-11-18T02:36:39;3.40;;;2.63;;
23101;SDS011;11720;51.214;22.574;2022-11-18T02:39:15;4.17;;;2.83;;
23101;SDS011;11720;51.214;22.574;2022-11-18T02:41:45;5.67;;;2.33;;
23101;SDS011;11720;51.214;22.574;2022-11-18T02:44:15;1.77;;;1.67;;
23101;SDS011;11720;51.214;22.574;2022-11-18T02:46:46;3.37;;;2.27;;
23101;SDS011;11720;51.214;22.574;2022-11-18T02:49:18;2.43;;;2.23;;
23101;SDS011;11720;51.214;22.574;2022-11-18T02:51:53;2.17;;;2.07;;
23101;SDS011;11720;51.214;22.574;2022-11-18T02:54:20;2.23;;;2.07;;
23101;SDS011;11720;51.214;22.574;2022-11-18T02:56:48;1.97;;;1.87;;
23101;SDS011;11720;51.214;22.574;2022-11-18T02:59:16;4.23;;;2.80;;
23101;SDS011;11720;51.214;22.574;2022-11-18T03:01:43;2.77;;;2.33;;
23101;SDS011;11720;51.214;22.574;2022-11-18T03:04:09;1.87;;;1.77;;
23101;SDS011;11720;51.214;22.574;2022-11-18T03:06:37;1.87;;;1.77;;
23101;SDS011;11720;51.214;22.574;2022-11-18T03:11:37;4.17;;;2.43;;
23101;SDS011;11720;51.214;22.574;2022-11-18T03:16:38;2.03;;;1.83;;
23101;SDS011;11720;51.214;22.574;2022-11-18T03:19:11;2.77;;;2.57;;
23101;SDS011;11720;51.214;22.574;2022-11-18T03:24:26;3.33;;;3.13;;
23101;SDS011;11720;51.214;22.574;2022-11-18T03:27:09;3.87;;;2.10;;
23101;SDS011;11720;51.214;22.574;2022-11-18T03:29:44;3.43;;;1.73;;
23101;SDS011;11720;51.214;22.574;2022-11-18T03:32:17;3.00;;;2.77;;
23101;SDS011;11720;51.214;22.574;2022-11-18T03:34:48;3.73;;;2.83;;
23101;SDS011;11720;51.214;22.574;2022-11-18T03:37:18;1.60;;;1.50;;
23101;SDS011;11720;51.214;22.574;2022-11-18T03:39:50;5.30;;;3.23;;
23101;SDS011;11720;51.214;22.574;2022-11-18T03:42:22;2.77;;;2.57;;
23101;SDS011;11720;51.214;22.574;2022-11-18T03:45:18;3.57;;;2.57;;
23101;SDS011;11720;51.214;22.574;2022-11-18T03:47:59;2.63;;;1.97;;
23101;SDS011;11720;51.214;22.574;2022-11-18T03:50:42;7.73;;;2.67;;
23101;SDS011;11720;51.214;22.574;2022-11-18T03:53:17;2.47;;;2.27;;
23101;SDS011;11720;51.214;22.574;2022-11-18T03:55:47;2.93;;;1.80;;
23101;SDS011;11720;51.214;22.574;2022-11-18T04:00:53;2.17;;;2.03;;
23101;SDS011;11720;51.214;22.574;2022-11-18T04:03:25;3.23;;;2.43;;
23101;SDS011;11720;51.214;22.574;2022-11-18T04:05:52;1.80;;;1.70;;
23101;SDS011;11720;51.214;22.574;2022-11-18T04:08:23;2.50;;;2.30;;
23101;SDS011;11720;51.214;22.574;2022-11-18T04:10:58;2.23;;;1.53;;
23101;SDS011;11720;51.214;22.574;2022-11-18T04:13:32;3.50;;;3.07;;
23101;SDS011;11720;51.214;22.574;2022-11-18T04:16:02;2.37;;;2.17;;
23101;SDS011;11720;51.214;22.574;2022-11-18T04:18:30;2.33;;;2.23;;
23101;SDS011;11720;51.214;22.574;2022-11-18T04:20:56;2.23;;;2.13;;
23101;SDS011;11720;51.214;22.574;2022-11-18T04:23:22;3.90;;;2.40;;
23101;SDS011;11720;51.214;22.574;2022-11-18T04:25:48;5.27;;;2.90;;
23101;SDS011;11720;51.214;22.574;2022-11-18T04:28:14;3.47;;;2.50;;
23101;SDS011;11720;51.214;22.574;2022-11-18T04:30:39;4.83;;;2.77;;
23101;SDS011;11720;51.214;22.574;2022-11-18T04:33:05;2.83;;;2.17;;
23101;SDS011;11720;51.214;22.574;2022-11-18T04:35:30;2.80;;;2.60;;
23101;SDS011;11720;51.214;22.574;2022-11-18T04:37:56;1.30;;;1.30;;
23101;SDS011;11720;51.214;22.574;2022-11-18T04:40:22;4.90;;;2.90;;
23101;SDS011;11720;51.214;22.574;2022-11-18T04:42:47;2.13;;;2.03;;
23101;SDS011;11720;51.214;22.574;2022-11-18T04:45:13;2.73;;;2.53;;
23101;SDS011;11720;51.214;22.574;2022-11-18T04:47:39;4.13;;;2.63;;
23101;SDS011;11720;51.214;22.574;2022-11-18T04:50:05;3.20;;;3.00;;
23101;SDS011;11720;51.214;22.574;2022-11-18T04:52:31;1.87;;;1.77;;
23101;SDS011;11720;51.214;22.574;2022-11-18T04:54:57;3.10;;;2.90;;
23101;SDS011;11720;51.214;22.574;2022-11-18T04:57:22;3.10;;;2.83;;
23101;SDS011;11720;51.214;22.574;2022-11-18T04:59:48;1.90;;;1.80;;
23101;SDS011;11720;51.214;22.574;2022-11-18T05:02:14;7.17;;;2.53;;
23101;SDS011;11720;51.214;22.574;2022-11-18T05:04:39;4.20;;;3.13;;
23101;SDS011;11720;51.214;22.574;2022-11-18T05:07:05;6.33;;;2.77;;
23101;SDS011;11720;51.214;22.574;2022-11-18T05:09:34;5.33;;;2.10;;
23101;SDS011;11720;51.214;22.574;2022-11-18T05:12:00;2.60;;;2.30;;
23101;SDS011;11720;51.214;22.574;2022-11-18T05:14:45;11.37;;;2.83;;
23101;SDS011;11720;51.214;22.574;2022-11-18T05:17:11;11.57;;;2.57;;
23101;SDS011;11720;51.214;22.574;2022-11-18T05:19:37;3.17;;;2.87;;
23101;SDS011;11720;51.214;22.574;2022-11-18T05:22:06;3.83;;;3.00;;
23101;SDS011;11720;51.214;22.574;2022-11-18T05:24:32;2.80;;;2.53;;
23101;SDS011;11720;51.214;22.574;2022-11-18T05:26:58;2.63;;;2.43;;
23101;SDS011;11720;51.214;22.574;2022-11-18T05:29:27;3.13;;;1.90;;
23101;SDS011;11720;51.214;22.574;2022-11-18T05:31:53;7.07;;;4.15;;
23101;SDS011;11720;51.214;22.574;2022-11-18T05:34:19;5.03;;;2.60;;
23101;SDS011;11720;51.214;22.574;2022-11-18T05:36:45;3.20;;;2.90;;
23101;SDS011;11720;51.214;22.574;2022-11-18T05:39:11;12.40;;;2.87;;
23101;SDS011;11720;51.214;22.574;2022-11-18T05:41:37;3.87;;;3.27;;
23101;SDS011;11720;51.214;22.574;2022-11-18T05:44:22;4.67;;;3.27;;
23101;SDS011;11720;51.214;22.574;2022-11-18T05:46:47;3.97;;;2.33;;
23101;SDS011;11720;51.214;22.574;2022-11-18T05:49:13;2.33;;;2.13;;
23101;SDS011;11720;51.214;22.574;2022-11-18T05:51:39;2.00;;;1.90;;
23101;SDS011;11720;51.214;22.574;2022-11-18T05:54:08;2.87;;;2.67;;
23101;SDS011;11720;51.214;22.574;2022-11-18T05:56:37;4.17;;;2.60;;
23101;SDS011;11720;51.214;22.574;2022-11-18T05:59:05;2.50;;;2.00;;
23101;SDS011;11720;51.214;22.574;2022-11-18T06:03:56;4.07;;;2.80;;
23101;SDS011;11720;51.214;22.574;2022-11-18T06:06:24;1.90;;;1.70;;
23101;SDS011;11720;51.214;22.574;2022-11-18T06:08:53;4.53;;;2.43;;
23101;SDS011;11720;51.214;22.574;2022-11-18T06:11:22;3.40;;;2.30;;
23101;SDS011;11720;51.214;22.574;2022-11-18T06:16:54;4.33;;;3.23;;
23101;SDS011;11720;51.214;22.574;2022-11-18T06:19:22;5.07;;;2.07;;
23101;SDS011;11720;51.214;22.574;2022-11-18T06:21:48;4.20;;;3.00;;
23101;SDS011;11720;51.214;22.574;2022-11-18T06:24:14;5.63;;;3.43;;
23101;SDS011;11720;51.214;22.574;2022-11-18T06:26:41;5.20;;;2.13;;
23101;SDS011;11720;51.214;22.574;2022-11-18T06:29:09;8.00;;;2.57;;
23101;SDS011;11720;51.214;22.574;2022-11-18T06:31:37;6.37;;;2.80;;
23101;SDS011;11720;51.214;22.574;2022-11-18T06:34:03;7.43;;;3.40;;
23101;SDS011;11720;51.214;22.574;2022-11-18T06:36:28;7.00;;;4.50;;
23101;SDS011;11720;51.214;22.574;2022-11-18T06:38:54;7.20;;;4.93;;
23101;SDS011;11720;51.214;22.574;2022-11-18T06:41:20;8.13;;;5.93;;
23101;SDS011;11720;51.214;22.574;2022-11-18T06:43:47;11.07;;;5.50;;
23101;SDS011;11720;51.214;22.574;2022-11-18T06:46:14;9.40;;;4.53;;
23101;SDS011;11720;51.214;22.574;2022-11-18T06:48:59;8.37;;;4.33;;
23101;SDS011;11720;51.214;22.574;2022-11-18T06:51:26;9.33;;;6.07;;
23101;SDS011;11720;51.214;22.574;2022-11-18T06:53:52;8.67;;;3.90;;
23101;SDS011;11720;51.214;22.574;2022-11-18T06:56:18;10.97;;;5.67;;
23101;SDS011;11720;51.214;22.574;2022-11-18T06:58:45;3.43;;;2.87;;
23101;SDS011;11720;51.214;22.574;2022-11-18T07:01:13;2.83;;;2.50;;
23101;SDS011;11720;51.214;22.574;2022-11-18T07:03:40;3.23;;;2.97;;
23101;SDS011;11720;51.214;22.574;2022-11-18T07:06:07;3.57;;;2.80;;
23101;SDS011;11720;51.214;22.574;2022-11-18T07:08:34;4.30;;;2.17;;
23101;SDS011;11720;51.214;22.574;2022-11-18T07:11:00;2.87;;;2.70;;
23101;SDS011;11720;51.214;22.574;2022-11-18T07:13:27;3.17;;;2.03;;
23101;SDS011;11720;51.214;22.574;2022-11-18T07:15:52;5.57;;;2.67;;
23101;SDS011;11720;51.214;22.574;2022-11-18T07:18:18;3.30;;;2.80;;
23101;SDS011;11720;51.214;22.574;2022-11-18T07:20:43;4.23;;;3.37;;
23101;SDS011;11720;51.214;22.574;2022-11-18T07:23:09;3.20;;;2.80;;
23101;SDS011;11720;51.214;22.574;2022-11-18T07:25:34;3.73;;;2.80;;
23101;SDS011;11720;51.214;22.574;2022-11-18T07:28:00;2.57;;;1.63;;
23101;SDS011;11720;51.214;22.574;2022-11-18T07:30:26;6.63;;;2.87;;
23101;SDS011;11720;51.214;22.574;2022-11-18T07:32:52;4.10;;;2.43;;
23101;SDS011;11720;51.214;22.574;2022-11-18T07:35:17;9.00;;;4.33;;
23101;SDS011;11720;51.214;22.574;2022-11-18T07:37:43;6.50;;;3.90;;
23101;SDS011;11720;51.214;22.574;2022-11-18T07:40:09;8.40;;;4.87;;
23101;SDS011;11720;51.214;22.574;2022-11-18T07:42:35;20.83;;;9.80;;
23101;SDS011;11720;51.214;22.574;2022-11-18T07:45:10;12.30;;;5.77;;
23101;SDS011;11720;51.214;22.574;2022-11-18T07:47:36;5.57;;;3.50;;
23101;SDS011;11720;51.214;22.574;2022-11-18T07:50:03;6.63;;;3.50;;
23101;SDS011;11720;51.214;22.574;2022-11-18T07:52:29;4.17;;;3.33;;
23101;SDS011;11720;51.214;22.574;2022-11-18T07:54:55;2.33;;;2.20;;
23101;SDS011;11720;51.214;22.574;2022-11-18T07:57:21;4.07;;;3.17;;
23101;SDS011;11720;51.214;22.574;2022-11-18T07:59:47;9.90;;;3.10;;
23101;SDS011;11720;51.214;22.574;2022-11-18T08:02:12;10.57;;;5.10;;
23101;SDS011;11720;51.214;22.574;2022-11-18T08:04:38;3.10;;;2.23;;
23101;SDS011;11720;51.214;22.574;2022-11-18T08:07:03;7.43;;;4.27;;
23101;SDS011;11720;51.214;22.574;2022-11-18T08:09:29;5.80;;;2.90;;
23101;SDS011;11720;51.214;22.574;2022-11-18T08:11:55;2.70;;;2.23;;
23101;SDS011;11720;51.214;22.574;2022-11-18T08:14:20;4.40;;;3.57;;
23101;SDS011;11720;51.214;22.574;2022-11-18T08:16:48;5.47;;;3.37;;
23101;SDS011;11720;51.214;22.574;2022-11-18T08:19:14;4.00;;;2.77;;
23101;SDS011;11720;51.214;22.574;2022-11-18T08:21:40;5.70;;;3.73;;
23101;SDS011;11720;51.214;22.574;2022-11-18T08:24:07;3.97;;;2.93;;
23101;SDS011;11720;51.214;22.574;2022-11-18T08:26:34;2.50;;;2.30;;
23101;SDS011;11720;51.214;22.574;2022-11-18T08:28:59;8.00;;;4.90;;
23101;SDS011;11720;51.214;22.574;2022-11-18T08:31:26;2.07;;;1.90;;
23101;SDS011;11720;51.214;22.574;2022-11-18T08:33:54;4.97;;;2.70;;
23101;SDS011;11720;51.214;22.574;2022-11-18T08:36:21;3.73;;;3.43;;
23101;SDS011;11720;51.214;22.574;2022-11-18T08:38:49;10.80;;;6.57;;
23101;SDS011;11720;51.214;22.574;2022-11-18T08:41:16;8.27;;;4.93;;
23101;SDS011;11720;51.214;22.574;2022-11-18T08:44:01;6.70;;;3.40;;
23101;SDS011;11720;51.214;22.574;2022-11-18T08:46:28;8.33;;;5.60;;
23101;SDS011;11720;51.214;22.574;2022-11-18T08:48:54;9.30;;;5.00;;
23101;SDS011;11720;51.214;22.574;2022-11-18T08:51:20;4.87;;;3.13;;
23101;SDS011;11720;51.214;22.574;2022-11-18T08:53:45;6.87;;;3.30;;
23101;SDS011;11720;51.214;22.574;2022-11-18T08:56:13;7.43;;;4.90;;
23101;SDS011;11720;51.214;22.574;2022-11-18T08:58:40;3.40;;;2.60;;
23101;SDS011;11720;51.214;22.574;2022-11-18T09:01:06;3.90;;;3.50;;
23101;SDS011;11720;51.214;22.574;2022-11-18T09:03:32;3.83;;;2.37;;
23101;SDS011;11720;51.214;22.574;2022-11-18T09:06:12;2.80;;;2.60;;
23101;SDS011;11720;51.214;22.574;2022-11-18T09:08:45;3.37;;;2.00;;
23101;SDS011;11720;51.214;22.574;2022-11-18T09:11:12;3.67;;;3.00;;
23101;SDS011;11720;51.214;22.574;2022-11-18T09:13:39;4.70;;;2.07;;
23101;SDS011;11720;51.214;22.574;2022-11-18T09:16:05;4.77;;;3.17;;
23101;SDS011;11720;51.214;22.574;2022-11-18T09:18:32;2.17;;;1.97;;
23101;SDS011;11720;51.214;22.574;2022-11-18T09:20:59;6.87;;;3.37;;
23101;SDS011;11720;51.214;22.574;2022-11-18T09:23:27;9.70;;;4.30;;
23101;SDS011;11720;51.214;22.574;2022-11-18T09:25:56;2.90;;;2.60;;
23101;SDS011;11720;51.214;22.574;2022-11-18T09:28:23;5.33;;;3.27;;
23101;SDS011;11720;51.214;22.574;2022-11-18T09:30:49;12.83;;;2.23;;
23101;SDS011;11720;51.214;22.574;2022-11-18T09:33:15;5.80;;;3.83;;
23101;SDS011;11720;51.214;22.574;2022-11-18T09:35:43;12.43;;;8.87;;
23101;SDS011;11720;51.214;22.574;2022-11-18T09:38:09;9.40;;;5.57;;
23101;SDS011;11720;51.214;22.574;2022-11-18T10:40:50;9.97;;;4.07;;
23101;SDS011;11720;51.214;22.574;2022-11-18T10:43:43;6.27;;;4.27;;
23101;SDS011;11720;51.214;22.574;2022-11-18T10:46:27;4.50;;;3.00;;
23101;SDS011;11720;51.214;22.574;2022-11-18T10:51:45;3.30;;;2.87;;
23101;SDS011;11720;51.214;22.574;2022-11-18T10:54:28;4.43;;;3.80;;
23101;SDS011;11720;51.214;22.574;2022-11-18T10:59:54;5.00;;;3.63;;
23101;SDS011;11720;51.214;22.574;2022-11-18T11:16:23;2.97;;;2.73;;
23101;SDS011;11720;51.214;22.574;2022-11-18T11:18:52;4.20;;;3.70;;
23101;SDS011;11720;51.214;22.574;2022-11-18T11:21:24;2.17;;;2.07;;
23101;SDS011;11720;51.214;22.574;2022-11-18T11:42:38;6.47;;;4.00;;
23101;SDS011;11720;51.214;22.574;2022-11-18T11:48:31;4.07;;;3.60;;
23101;SDS011;11720;51.214;22.574;2022-11-18T11:51:06;21.90;;;5.53;;
23101;SDS011;11720;51.214;22.574;2022-11-18T11:56:47;10.37;;;7.03;;
23101;SDS011;11720;51.214;22.574;2022-11-18T12:04:57;11.13;;;5.77;;
23101;SDS011;11720;51.214;22.574;2022-11-18T12:51:49;12.37;;;5.53;;
23101;SDS011;11720;51.214;22.574;2022-11-18T13:09:53;20.17;;;7.87;;
23101;SDS011;11720;51.214;22.574;2022-11-18T13:12:20;14.80;;;7.20;;
23101;SDS011;11720;51.214;22.574;2022-11-18T13:14:50;12.43;;;6.90;;
23101;SDS011;11720;51.214;22.574;2022-11-18T13:26:31;19.73;;;10.13;;
23101;SDS011;11720;51.214;22.574;2022-11-18T13:38:03;6.03;;;4.90;;
23101;SDS011;11720;51.214;22.574;2022-11-18T13:40:43;10.53;;;6.23;;
23101;SDS011;11720;51.214;22.574;2022-11-18T13:43:38;12.43;;;7.10;;
23101;SDS011;11720;51.214;22.574;2022-11-18T13:51:31;15.63;;;8.10;;
23101;SDS011;11720;51.214;22.574;2022-11-18T13:59:18;9.07;;;5.17;;
23101;SDS011;11720;51.214;22.574;2022-11-18T14:04:30;3.87;;;3.57;;
23101;SDS011;11720;51.214;22.574;2022-11-18T14:10:06;27.53;;;6.83;;
23101;SDS011;11720;51.214;22.574;2022-11-18T14:12:39;8.57;;;4.00;;
23101;SDS011;11720;51.214;22.574;2022-11-18T14:20:28;7.23;;;6.47;;
23101;SDS011;11720;51.214;22.574;2022-11-18T14:22:57;7.23;;;5.60;;
23101;SDS011;11720;51.214;22.574;2022-11-18T14:25:25;10.40;;;6.67;;
23101;SDS011;11720;51.214;22.574;2022-11-18T14:30:27;7.73;;;6.87;;
23101;SDS011;11720;51.214;22.574;2022-11-18T14:51:04;11.83;;;7.27;;
23101;SDS011;11720;51.214;22.574;2022-11-18T14:56:36;14.87;;;5.77;;
23101;SDS011;11720;51.214;22.574;2022-11-18T14:59:10;12.17;;;7.97;;
23101;SDS011;11720;51.214;22.574;2022-11-18T15:01:40;14.60;;;7.80;;
23101;SDS011;11720;51.214;22.574;2022-11-18T15:04:09;9.80;;;6.10;;
23101;SDS011;11720;51.214;22.574;2022-11-18T15:11:45;8.27;;;5.23;;
23101;SDS011;11720;51.214;22.574;2022-11-18T15:14:14;8.57;;;5.40;;
23101;SDS011;11720;51.214;22.574;2022-11-18T15:16:52;8.67;;;4.97;;
23101;SDS011;11720;51.214;22.574;2022-11-18T15:30:00;11.97;;;6.10;;
23101;SDS011;11720;51.214;22.574;2022-11-18T15:32:31;16.60;;;6.63;;
23101;SDS011;11720;51.214;22.574;2022-11-18T15:35:04;8.40;;;6.07;;
23101;SDS011;11720;51.214;22.574;2022-11-18T15:37:39;8.93;;;5.73;;
23101;SDS011;11720;51.214;22.574;2022-11-18T15:40:05;7.47;;;6.30;;
23101;SDS011;11720;51.214;22.574;2022-11-18T15:42:31;14.47;;;3.23;;
23101;SDS011;11720;51.214;22.574;2022-11-18T15:44:57;6.33;;;4.90;;
23101;SDS011;11720;51.214;22.574;2022-11-18T15:47:23;11.03;;;6.37;;
23101;SDS011;11720;51.214;22.574;2022-11-18T15:49:49;5.50;;;4.63;;
23101;SDS011;11720;51.214;22.574;2022-11-18T15:52:14;11.13;;;5.27;;
23101;SDS011;11720;51.214;22.574;2022-11-18T15:54:41;10.80;;;6.00;;
23101;SDS011;11720;51.214;22.574;2022-11-18T15:57:06;22.97;;;6.83;;
23101;SDS011;11720;51.214;22.574;2022-11-18T15:59:32;11.80;;;8.37;;
23101;SDS011;11720;51.214;22.574;2022-11-18T16:01:57;4.80;;;4.40;;
23101;SDS011;11720;51.214;22.574;2022-11-18T16:04:23;6.13;;;5.33;;
23101;SDS011;11720;51.214;22.574;2022-11-18T16:06:49;12.87;;;6.87;;
23101;SDS011;11720;51.214;22.574;2022-11-18T16:09:14;8.83;;;5.37;;
23101;SDS011;11720;51.214;22.574;2022-11-18T16:11:41;14.23;;;7.03;;
23101;SDS011;11720;51.214;22.574;2022-11-18T16:14:25;8.07;;;6.10;;
23101;SDS011;11720;51.214;22.574;2022-11-18T16:16:52;16.00;;;6.87;;
23101;SDS011;11720;51.214;22.574;2022-11-18T16:19:19;5.93;;;4.73;;
23101;SDS011;11720;51.214;22.574;2022-11-18T16:21:49;8.63;;;5.90;;
23101;SDS011;11720;51.214;22.574;2022-11-18T16:24:17;7.20;;;5.47;;
23101;SDS011;11720;51.214;22.574;2022-11-18T16:26:44;6.57;;;5.77;;
23101;SDS011;11720;51.214;22.574;2022-11-18T16:29:10;16.73;;;7.07;;
23101;SDS011;11720;51.214;22.574;2022-11-18T16:31:37;12.63;;;5.80;;
23101;SDS011;11720;51.214;22.574;2022-11-18T16:36:54;13.13;;;5.47;;
23101;SDS011;11720;51.214;22.574;2022-11-18T16:39:25;11.37;;;7.37;;
23101;SDS011;11720;51.214;22.574;2022-11-18T16:42:09;18.27;;;8.87;;
23101;SDS011;11720;51.214;22.574;2022-11-18T16:49:47;11.00;;;5.83;;
23101;SDS011;11720;51.214;22.574;2022-11-18T16:59:05;13.50;;;5.87;;
23101;SDS011;11720;51.214;22.574;2022-11-18T17:01:42;9.50;;;6.07;;
23101;SDS011;11720;51.214;22.574;2022-11-18T17:04:47;11.47;;;7.67;;
23101;SDS011;11720;51.214;22.574;2022-11-18T17:10:14;18.53;;;8.67;;
23101;SDS011;11720;51.214;22.574;2022-11-18T17:13:03;19.90;;;10.20;;
23101;SDS011;11720;51.214;22.574;2022-11-18T17:18:32;7.83;;;5.47;;
23101;SDS011;11720;51.214;22.574;2022-11-18T17:21:05;8.97;;;6.37;;
23101;SDS011;11720;51.214;22.574;2022-11-18T17:23:56;17.00;;;8.70;;
23101;SDS011;11720;51.214;22.574;2022-11-18T17:26:38;19.60;;;9.33;;
23101;SDS011;11720;51.214;22.574;2022-11-18T17:29:04;12.03;;;9.30;;
23101;SDS011;11720;51.214;22.574;2022-11-18T17:31:30;22.73;;;9.37;;
23101;SDS011;11720;51.214;22.574;2022-11-18T17:33:57;15.97;;;8.87;;
23101;SDS011;11720;51.214;22.574;2022-11-18T17:39:09;9.83;;;7.53;;
23101;SDS011;11720;51.214;22.574;2022-11-18T17:41:39;23.83;;;8.50;;
23101;SDS011;11720;51.214;22.574;2022-11-18T17:44:32;18.77;;;9.23;;
23101;SDS011;11720;51.214;22.574;2022-11-18T17:47:02;22.27;;;10.90;;
23101;SDS011;11720;51.214;22.574;2022-11-18T17:49:31;21.23;;;9.47;;
23101;SDS011;11720;51.214;22.574;2022-11-18T17:52:02;24.50;;;8.50;;
23101;SDS011;11720;51.214;22.574;2022-11-18T17:54:29;19.73;;;8.63;;
23101;SDS011;11720;51.214;22.574;2022-11-18T17:56:58;18.50;;;10.07;;
23101;SDS011;11720;51.214;22.574;2022-11-18T17:59:23;18.10;;;7.60;;
23101;SDS011;11720;51.214;22.574;2022-11-18T18:01:51;13.83;;;8.77;;
23101;SDS011;11720;51.214;22.574;2022-11-18T18:04:17;23.93;;;10.93;;
23101;SDS011;11720;51.214;22.574;2022-11-18T18:06:48;13.73;;;9.73;;
23101;SDS011;11720;51.214;22.574;2022-11-18T18:09:17;14.27;;;8.63;;
23101;SDS011;11720;51.214;22.574;2022-11-18T18:11:43;13.10;;;7.30;;
23101;SDS011;11720;51.214;22.574;2022-11-18T18:14:09;15.50;;;7.80;;
23101;SDS011;11720;51.214;22.574;2022-11-18T18:16:39;12.37;;;7.57;;
23101;SDS011;11720;51.214;22.574;2022-11-18T18:19:13;14.77;;;5.87;;
23101;SDS011;11720;51.214;22.574;2022-11-18T18:21:41;8.07;;;5.03;;
23101;SDS011;11720;51.214;22.574;2022-11-18T18:24:08;10.60;;;6.70;;
23101;SDS011;11720;51.214;22.574;2022-11-18T18:26:36;14.47;;;5.73;;
23101;SDS011;11720;51.214;22.574;2022-11-18T18:29:05;14.53;;;5.43;;
23101;SDS011;11720;51.214;22.574;2022-11-18T18:31:32;17.43;;;7.00;;
23101;SDS011;11720;51.214;22.574;2022-11-18T18:34:01;12.63;;;6.07;;
23101;SDS011;11720;51.214;22.574;2022-11-18T18:36:30;12.53;;;6.80;;
23101;SDS011;11720;51.214;22.574;2022-11-18T18:38:58;13.83;;;5.93;;
23101;SDS011;11720;51.214;22.574;2022-11-18T18:41:26;9.73;;;7.27;;
23101;SDS011;11720;51.214;22.574;2022-11-18T18:43:52;22.43;;;10.00;;
23101;SDS011;11720;51.214;22.574;2022-11-18T18:46:26;17.97;;;6.03;;
23101;SDS011;11720;51.214;22.574;2022-11-18T18:48:57;12.07;;;7.37;;
23101;SDS011;11720;51.214;22.574;2022-11-18T18:51:25;9.43;;;5.00;;
23101;SDS011;11720;51.214;22.574;2022-11-18T18:53:56;9.27;;;5.80;;
23101;SDS011;11720;51.214;22.574;2022-11-18T19:01:35;14.60;;;4.57;;
23101;SDS011;11720;51.214;22.574;2022-11-18T19:04:04;8.23;;;6.03;;
23101;SDS011;11720;51.214;22.574;2022-11-18T19:06:36;19.77;;;6.63;;
23101;SDS011;11720;51.214;22.574;2022-11-18T19:14:17;17.10;;;8.63;;
23101;SDS011;11720;51.214;22.574;2022-11-18T19:16:46;7.07;;;6.07;;
23101;SDS011;11720;51.214;22.574;2022-11-18T19:22:15;6.37;;;4.67;;
23101;SDS011;11720;51.214;22.574;2022-11-18T19:27:19;17.27;;;7.50;;
23101;SDS011;11720;51.214;22.574;2022-11-18T19:29:50;15.80;;;8.90;;
23101;SDS011;11720;51.214;22.574;2022-11-18T19:32:17;20.93;;;8.53;;
23101;SDS011;11720;51.214;22.574;2022-11-18T19:34:50;20.23;;;8.43;;
23101;SDS011;11720;51.214;22.574;2022-11-18T19:37:16;19.33;;;10.57;;
23101;SDS011;11720;51.214;22.574;2022-11-18T19:39:42;6.13;;;3.80;;
23101;SDS011;11720;51.214;22.574;2022-11-18T19:42:08;5.93;;;5.03;;
23101;SDS011;11720;51.214;22.574;2022-11-18T19:44:34;5.27;;;4.33;;
23101;SDS011;11720;51.214;22.574;2022-11-18T19:47:03;12.13;;;5.07;;
23101;SDS011;11720;51.214;22.574;2022-11-18T19:49:29;14.83;;;8.60;;
23101;SDS011;11720;51.214;22.574;2022-11-18T19:51:55;7.97;;;6.30;;
23101;SDS011;11720;51.214;22.574;2022-11-18T19:54:21;19.23;;;6.60;;
23101;SDS011;11720;51.214;22.574;2022-11-18T19:56:47;15.90;;;7.20;;
23101;SDS011;11720;51.214;22.574;2022-11-18T19:59:13;17.23;;;7.40;;